^^
Datos históricos de la estación: Murcia-Puente Tocinos
Diario Informe para Marzo 10, 2019 Unidades:  Ingés    Métrico   Ambas
Diario Semanal Mensual Anual
  Máxima: Mínima: Promedio:
Temperatura: 100.6 °F 81.3 °F 89.6 °F
Punto de rocio: 71.8 °F 51.1 °F 62.1 °F
Humedad: 65% 26% 41%
Velocidad viento: 13.5mph 0mph 6.5mph
Racha viento: 26mph - -
Viento- - SSE
Presión: 29.9 in 29.9 in -
Precipitación: 0 in    
 
 
Tabla de datos para Marzo 10, 2019
Hora Temperatura Punto de rocio Presión Viento Velocidad viento Racha viento Humedad Intensidad lluvia(por hora) Nubes
00:04 84.9 °F 71.8 °F 29.9 in NNE 2 mph 5 mph 65% 0 in
00:09 84.9 °F 71.8 °F 29.9 in NNE 1.9 mph 4.3 mph 65% 0 in
00:14 84.9 °F 71.4 °F 29.9 in NNO 1.4 mph 5 mph 64.2% 0 in
00:19 84.7 °F 71.2 °F 29.9 in NO 1.5 mph 5 mph 64% 0 in
00:24 84.7 °F 71.2 °F 29.9 in NO 2 mph 3.1 mph 64% 0 in
00:29 84.7 °F 71.2 °F 29.9 in NO 2 mph 4.6 mph 64% 0 in
00:34 84.6 °F 70.5 °F 29.9 in NO 1.8 mph 5 mph 63% 0 in
00:39 84.6 °F 69.6 °F 29.9 in NO 1.8 mph 4.7 mph 61.1% 0 in
00:44 84.4 °F 69.4 °F 29.9 in ONO 2 mph 5 mph 60.8% 0 in
00:49 84.4 °F 69.1 °F 29.9 in ONO 2 mph 4 mph 60.3% 0 in
00:54 84.2 °F 68.7 °F 29.9 in NO 1.8 mph 3 mph 60% 0 in
00:59 84 °F 68.7 °F 29.9 in NO 1.5 mph 3.6 mph 60.3% 0 in
01:04 84 °F 70.3 °F 29.9 in Calm   5.2 mph 63.7% 0 in
01:09 84 °F 70.5 °F 29.9 in SSE 0.3 mph 5 mph 64.1% 0 in
01:14 84 °F 71.1 °F 29.9 in SSE 1.8 mph 3 mph 65% 0 in
01:19 84 °F 70.2 °F 29.9 in SSE 1.7 mph 3.6 mph 63.4% 0 in
01:24 83.8 °F 70.5 °F 29.9 in SSE 1.4 mph 4 mph 64.2% 0 in
01:29 83.8 °F 69.3 °F 29.9 in SO 1.4 mph 4 mph 61.8% 0 in
01:34 83.8 °F 69.1 °F 29.9 in SO 1.8 mph 4.7 mph 61% 0 in
01:39 83.8 °F 68.9 °F 29.9 in SO 1.8 mph 5.8 mph 61% 0 in
01:44 83.7 °F 68.7 °F 29.9 in SO 2 mph 6 mph 60.7% 0 in
01:49 83.7 °F 68.5 °F 29.9 in OSO 2.1 mph 5 mph 60.4% 0 in
01:54 83.8 °F 68.4 °F 29.9 in Oeste 2.4 mph 5 mph 59.9% 0 in
01:59 83.8 °F 68.2 °F 29.9 in SO 2.3 mph 3.5 mph 59.1% 0 in
02:04 84 °F 67.8 °F 29.9 in SO 1.8 mph 3 mph 58.3% 0 in
02:09 84 °F 67.6 °F 29.9 in SO 1.6 mph 3.1 mph 58.1% 0 in
02:14 84 °F 64.2 °F 29.9 in Calm   6.2 mph 51.4% 0 in
02:19 84.2 °F 63.1 °F 29.9 in Sur 0.5 mph 6 mph 49.3% 0 in
02:24 84.4 °F 62.6 °F 29.9 in Sur 3.6 mph 6.4 mph 48.3% 0 in
02:29 84.2 °F 61.7 °F 29.9 in Sur 3.6 mph 7 mph 46.7% 0 in
02:34 84.4 °F 61 °F 29.9 in SSO 4 mph 7 mph 45.6% 0 in
02:39 84.6 °F 60.6 °F 29.9 in SO 4 mph 6 mph 44.8% 0 in
02:44 84.6 °F 60.3 °F 29.9 in SO 4 mph 6 mph 44.1% 0 in
02:49 84.6 °F 60.3 °F 29.9 in OSO 3.9 mph 6 mph 44% 0 in
02:54 84.6 °F 60.3 °F 29.9 in Oeste 3.1 mph 5.2 mph 44.1% 0 in
02:59 84.6 °F 60.8 °F 29.9 in Oeste 3 mph 5 mph 45% 0 in
03:04 84.2 °F 60.8 °F 29.9 in Oeste 2.4 mph 4 mph 45.4% 0 in
03:09 83.8 °F 60.6 °F 29.9 in Sur 2.4 mph 5.9 mph 45.5% 0 in
03:14 83.5 °F 61.7 °F 29.9 in ESE 2 mph 6 mph 47.8% 0 in
03:19 82.9 °F 61.3 °F 29.9 in ESE 2.1 mph 5 mph 48% 0 in
03:24 82.8 °F 60.6 °F 29.9 in ESE 2.4 mph 3.1 mph 47.3% 0 in
03:29 82.6 °F 61 °F 29.9 in ESE 2.3 mph 3.5 mph 48.2% 0 in
03:34 82.6 °F 61.5 °F 29.9 in ESE 1.8 mph 2.4 mph 49% 0 in
03:39 82.6 °F 61.3 °F 29.9 in ESE 1.8 mph 3.5 mph 48.9% 0 in
03:44 82.2 °F 61 °F 29.9 in ESE 1.8 mph 3 mph 48.6% 0 in
03:49 82 °F 61.7 °F 29.9 in ESE 1.7 mph 3.6 mph 50.1% 0 in
03:54 81.9 °F 61.9 °F 29.9 in ESE 1.4 mph 4 mph 50.7% 0 in
03:59 81.9 °F 61.3 °F 29.9 in ESE 1.5 mph 4.6 mph 49.8% 0 in
04:04 81.9 °F 61 °F 29.9 in SSE 1.8 mph 6.2 mph 49.3% 0 in
04:09 82 °F 61 °F 29.9 in SSE 2 mph 6 mph 49% 0 in
04:14 82 °F 61 °F 29.9 in SSE 3.1 mph 5 mph 49% 0 in
04:19 82 °F 61 °F 29.9 in SSE 3 mph 5.2 mph 49% 0 in
04:24 81.9 °F 60.8 °F 29.9 in SSE 2.9 mph 5 mph 49% 0 in
04:29 81.5 °F 60.4 °F 29.9 in SSE 2.9 mph 5 mph 49% 0 in
04:34 81.3 °F 60.3 °F 29.9 in Sur 2.9 mph 5.4 mph 49% 0 in
04:39 81.7 °F 60.6 °F 29.9 in SSO 3 mph 7.4 mph 48.8% 0 in
04:44 82 °F 60.3 °F 29.9 in SO 4 mph 8.1 mph 47.6% 0 in
04:49 82.6 °F 59.9 °F 29.9 in SO 4 mph 8 mph 46.3% 0 in
04:54 82.9 °F 59.7 °F 29.9 in OSO 4.3 mph 7 mph 45.7% 0 in
04:59 82.9 °F 59 °F 29.9 in SSO 4.2 mph 11.2 mph 44.3% 0 in
05:04 83.3 °F 57.6 °F 29.9 in SO 4 mph 12 mph 41.9% 0 in
05:09 83.8 °F 57 °F 29.9 in SO 4.2 mph 10 mph 40.2% 0 in
05:14 84 °F 56.8 °F 29.9 in OSO 5.2 mph 7 mph 39.6% 0 in
05:19 84.2 °F 55.9 °F 29.9 in SSO 5.1 mph 8.1 mph 38.1% 0 in
05:24 84.4 °F 56.1 °F 29.9 in OSO 4.3 mph 8 mph 38.1% 0 in
05:29 84.4 °F 55.9 °F 29.9 in SSO 4 mph 5 mph 38% 0 in
05:34 84.2 °F 55.9 °F 29.9 in SO 2.4 mph 5 mph 38.2% 0 in
05:39 84 °F 56.3 °F 29.9 in Oeste 2.3 mph 5 mph 38.8% 0 in
05:44 83.8 °F 55.9 °F 29.9 in OSO 1.8 mph 5.2 mph 38.6% 0 in
05:49 83.7 °F 55.8 °F 29.9 in SO 1.9 mph 5 mph 38.5% 0 in
05:54 83.3 °F 54.9 °F 29.9 in SO 2.4 mph 5 mph 37.7% 0 in
05:59 83.5 °F 54 °F 29.9 in SO 2.6 mph 6.4 mph 36.2% 0 in
06:04 83.8 °F 53.1 °F 29.9 in SO 3.6 mph 7 mph 34.8% 0 in
06:09 84.2 °F 52.3 °F 29.9 in SO 3.7 mph 8.7 mph 33.5% 0 in
06:14 84.6 °F 51.8 °F 29.9 in SO 4.7 mph 9.2 mph 32.5% 0 in
06:19 84.7 °F 51.8 °F 29.9 in SSO 4.8 mph 9 mph 32% 0 in
06:24 84.9 °F 51.4 °F 29.9 in SSO 5.2 mph 11.8 mph 31.6% 0 in
06:29 85.1 °F 51.1 °F 29.9 in SO 5.3 mph 12 mph 31% 0 in
06:34 85.3 °F 51.4 °F 29.9 in SO 6.2 mph 10 mph 31.3% 0 in
06:39 85.3 °F 51.8 °F 29.9 in SO 6.2 mph 9 mph 31.7% 0 in
06:44 85.3 °F 51.6 °F 29.9 in SO 5.9 mph 9.2 mph 31.5% 0 in
06:49 85.1 °F 52 °F 29.9 in SO 5.8 mph 9.7 mph 32% 0 in
06:54 84.9 °F 51.8 °F 29.9 in SSO 5.4 mph 10.4 mph 31.9% 0 in
06:59 84.9 °F 51.6 °F 29.9 in SSO 5.6 mph 10.4 mph 31.7% 0 in
07:04 84.9 °F 51.8 °F 29.9 in SSO 6.2 mph 11.2 mph 32% 0 in
07:09 84.9 °F 51.8 °F 29.9 in SSO 6.3 mph 12 mph 32% 0 in
07:14 84.9 °F 51.8 °F 29.9 in SSO 6.9 mph 12 mph 32% 0 in
07:19 85.3 °F 52 °F 29.9 in SSO 6.8 mph 10 mph 32% 0 in
07:24 85.3 °F 52.2 °F 29.9 in SSO 6.4 mph 10.4 mph 32% 0 in
07:29 85.5 °F 52.9 °F 29.9 in SO 6.5 mph 11.5 mph 33% 0 in
07:34 85.5 °F 53.1 °F 29.9 in SO 6.9 mph 12 mph 33% 0 in
07:39 85.5 °F 53.1 °F 29.9 in SSO 7 mph 12 mph 33% 0 in
07:44 85.5 °F 53.6 °F 29.9 in SO 7.6 mph 12 mph 33.8% 0 in
07:49 85.3 °F 53.8 °F 29.9 in SSO 7.7 mph 12 mph 34% 0 in
07:54 85.3 °F 53.8 °F 29.9 in SSO 8.1 mph 15 mph 34% 0 in
07:59 85.3 °F 53.8 °F 29.9 in SO 8.2 mph 15 mph 34% 0 in
08:04 85.3 °F 54.3 °F 29.9 in SSO 8.7 mph 14 mph 34.8% 0 in
08:09 85.5 °F 54.7 °F 29.9 in SSO 8.5 mph 12.7 mph 35% 0 in
08:14 85.6 °F 54.7 °F 29.9 in SSO 7.6 mph 13 mph 35% 0 in
08:19 85.6 °F 54.9 °F 29.9 in SSO 7.7 mph 13 mph 35% 0 in
08:24 85.6 °F 55.2 °F 29.9 in SSO 8.5 mph 13.8 mph 35.6% 0 in
08:29 85.6 °F 55.6 °F 29.9 in SSO 8.5 mph 14 mph 36% 0 in
08:34 85.6 °F 55.6 °F 29.9 in SSO 8.7 mph 14 mph 36% 0 in
08:39 85.8 °F 56.5 °F 29.9 in SSO 8.5 mph 13 mph 37% 0 in
08:44 85.8 °F 56.7 °F 29.9 in SSO 7.6 mph 12 mph 37% 0 in
08:49 86 °F 56.8 °F 29.9 in SSO 7.5 mph 12 mph 37.1% 0 in
08:54 86.4 °F 57.7 °F 29.9 in SSO 6.9 mph 12 mph 37.9% 0 in
08:59 86.5 °F 57.9 °F 29.9 in SO 6.9 mph 12 mph 38% 0 in
09:04 86.5 °F 58.1 °F 29.9 in SO 6.9 mph 9 mph 38% 0 in
09:09 86.9 °F 58.3 °F 29.9 in SSO 6.6 mph 9.7 mph 38% 0 in
09:14 87.3 °F 58.5 °F 29.9 in SO 5.2 mph 10 mph 38% 0 in
09:19 87.4 °F 58.6 °F 29.9 in SO 5.2 mph 9.2 mph 38% 0 in
09:24 87.4 °F 58.6 °F 29.9 in SO 5.4 mph 10.7 mph 38% 0 in
09:29 87.6 °F 59 °F 29.9 in SO 5.5 mph 11.4 mph 38% 0 in
09:34 87.8 °F 59.2 °F 29.9 in SO 5.9 mph 12 mph 38% 0 in
09:39 88 °F 59.2 °F 29.9 in SSO 5.9 mph 10 mph 38% 0 in
09:44 88.3 °F 59.5 °F 29.9 in SO 5.9 mph 9 mph 38.1% 0 in
09:49 88.5 °F 59.7 °F 29.9 in SO 5.8 mph 8.5 mph 38% 0 in
09:54 88.9 °F 59.9 °F 29.9 in SO 5.2 mph 10.2 mph 38% 0 in
09:59 88.9 °F 60.1 °F 29.9 in SO 5.3 mph 10.4 mph 38% 0 in
10:04 89.1 °F 60.6 °F 29.9 in SO 5.9 mph 10.4 mph 38.5% 0 in
10:09 89.4 °F 61.2 °F 29.9 in SO 5.9 mph 10 mph 39% 0 in
10:14 90 °F 61.5 °F 29.9 in SO 5.9 mph 10.4 mph 39% 0 in
10:19 90.1 °F 61.9 °F 29.9 in SO 5.9 mph 10 mph 39% 0 in
10:24 90.5 °F 62.2 °F 29.9 in Oeste 5.9 mph 13 mph 39% 0 in
10:29 90.9 °F 63 °F 29.9 in OSO 6 mph 13 mph 39.7% 0 in
10:34 91 °F 63.3 °F 29.9 in OSO 6.4 mph 13 mph 40% 0 in
10:39 91.2 °F 63.5 °F 29.9 in OSO 6.5 mph 13 mph 40% 0 in
10:44 91.4 °F 63.7 °F 29.9 in OSO 6.9 mph 13.8 mph 39.9% 0 in
10:49 91.6 °F 63.5 °F 29.9 in OSO 7 mph 14 mph 39.7% 0 in
10:54 91.8 °F 63.9 °F 29.9 in OSO 7.4 mph 12.7 mph 39.9% 0 in
10:59 91.9 °F 63.5 °F 29.9 in Oeste 7.5 mph 13 mph 39.1% 0 in
11:04 92.3 °F 63.3 °F 29.9 in ONO 7.6 mph 13 mph 38.5% 0 in
11:09 92.5 °F 63.9 °F 29.9 in Oeste 7.4 mph 13 mph 38.8% 0 in
11:14 92.8 °F 63.7 °F 29.9 in OSO 6.2 mph 15 mph 38.1% 0 in
11:19 92.8 °F 63.5 °F 29.9 in OSO 6.4 mph 15 mph 38% 0 in
11:24 92.8 °F 63.5 °F 29.9 in OSO 7.4 mph 12 mph 38% 0 in
11:29 93.2 °F 63.7 °F 29.9 in Oeste 7.3 mph 12 mph 37.8% 0 in
11:34 93.4 °F 63.3 °F 29.9 in Oeste 6.9 mph 13 mph 37.2% 0 in
11:39 93.7 °F 63 °F 29.9 in OSO 6.8 mph 13 mph 36.3% 0 in
11:44 93.9 °F 62.8 °F 29.9 in OSO 6.4 mph 13.8 mph 35.8% 0 in
11:49 94.1 °F 63 °F 29.9 in OSO 6.6 mph 14 mph 36% 0 in
11:54 94.1 °F 63.1 °F 29.9 in Oeste 7.6 mph 12 mph 36% 0 in
11:59 94.6 °F 62.8 °F 29.9 in Oeste 7.2 mph 11.8 mph 35% 0 in
12:04 94.8 °F 62.8 °F 29.9 in ONO 5.4 mph 13.5 mph 35% 0 in
12:09 95 °F 62.4 °F 29.9 in Oeste 5.5 mph 14 mph 34.2% 0 in
12:14 95.2 °F 62.4 °F 29.9 in Oeste 6.4 mph 14 mph 34% 0 in
12:19 95.4 °F 62.4 °F 29.9 in Oeste 6.3 mph 12 mph 33.9% 0 in
12:24 95.5 °F 62.1 °F 29.9 in Oeste 5.9 mph 10.7 mph 33.2% 0 in
12:29 95.9 °F 62.1 °F 29.9 in OSO 5.9 mph 14 mph 32.9% 0 in
12:34 96.3 °F 61.7 °F 29.9 in OSO 5.9 mph 14 mph 32.3% 0 in
12:39 96.1 °F 61.5 °F 29.9 in OSO 6.2 mph 14 mph 32% 0 in
12:44 96.1 °F 61.5 °F 29.9 in Oeste 7.4 mph 13 mph 32.1% 0 in
12:49 96.3 °F 61.7 °F 29.9 in OSO 7.1 mph 11 mph 32% 0 in
12:54 96.6 °F 61.3 °F 29.9 in OSO 5.9 mph 11 mph 31.3% 0 in
12:59 96.8 °F 60.3 °F 29.9 in SSO 6 mph 10.4 mph 30.1% 0 in
13:04 97 °F 59.9 °F 29.9 in SO 6.2 mph 10 mph 29.5% 0 in
13:09 97.2 °F 59.7 °F 29.9 in SO 6 mph 9 mph 29.1% 0 in
13:14 97.3 °F 59.4 °F 29.9 in OSO 4.7 mph 8.5 mph 28.4% 0 in
13:19 97.7 °F 59 °F 29.9 in SSO 4.6 mph 9 mph 28% 0 in
13:24 97.9 °F 58.8 °F 29.9 in SSE 4 mph 7 mph 27.6% 0 in
13:29 98.1 °F 59.4 °F 29.9 in SE 3.9 mph 7 mph 28% 0 in
13:34 98.6 °F 59.7 °F 29.9 in NO 3.1 mph 8.7 mph 27.9% 0 in
13:39 98.8 °F 58.8 °F 29.9 in NNO 3.3 mph 9.2 mph 26.9% 0 in
13:44 98.8 °F 58.1 °F 29.9 in NNO 4.3 mph 8.1 mph 26.1% 0 in
13:49 99 °F 58.1 °F 29.9 in NNE 4.3 mph 8.1 mph 26% 0 in
13:54 99 °F 58.1 °F 29.9 in SE 4.3 mph 8 mph 26% 0 in
13:59 99.1 °F 58.3 °F 29.9 in Sur 4.2 mph 7 mph 26% 0 in
14:04 99.7 °F 58.6 °F 29.9 in NE 3.6 mph 9.7 mph 26% 0 in
14:09 99.9 °F 58.8 °F 29.9 in NE 3.9 mph 10 mph 26% 0 in
14:14 99.9 °F 58.8 °F 29.9 in NNE 5.4 mph 10 mph 26% 0 in
14:19 100.4 °F 59.5 °F 29.9 in NNE 5.1 mph 12.5 mph 26.2% 0 in
14:24 100.6 °F 62.6 °F 29.9 in ENE 3.6 mph 18.5 mph 29.2% 0 in
14:29 99.9 °F 63.1 °F 29.9 in ENE 4.5 mph 19.7 mph 30.3% 0 in
14:34 99 °F 63.3 °F 29.9 in ENE 9.7 mph 20 mph 31.4% 0 in
14:39 98.6 °F 63.7 °F 29.9 in ENE 9.8 mph 20.7 mph 32% 0 in
14:44 98.8 °F 63.9 °F 29.9 in ENE 10.7 mph 21 mph 32% 0 in
14:49 98.8 °F 63.9 °F 29.9 in ENE 10.4 mph 17.3 mph 32% 0 in
14:54 99 °F 64.8 °F 29.9 in ENE 8.5 mph 20.8 mph 33% 0 in
14:59 98.4 °F 65.1 °F 29.9 in ENE 9.1 mph 21 mph 34% 0 in
15:04 98.1 °F 65.3 °F 29.9 in ENE 11.4 mph 20.1 mph 34.6% 0 in
15:09 97.5 °F 65.3 °F 29.9 in NE 11.4 mph 24.2 mph 35% 0 in
15:14 97.2 °F 65.5 °F 29.9 in NE 11.8 mph 24 mph 35.6% 0 in
15:19 97.2 °F 65.7 °F 29.9 in ENE 11.6 mph 22 mph 36% 0 in
15:24 97.3 °F 65.8 °F 29.9 in ENE 10.7 mph 19 mph 36% 0 in
15:29 96.8 °F 66 °F 29.9 in ENE 10.7 mph 19.7 mph 36.5% 0 in
15:34 97 °F 66.2 °F 29.9 in ENE 11.2 mph 20 mph 36.9% 0 in
15:39 97 °F 66.4 °F 29.9 in ENE 10.9 mph 17.5 mph 37% 0 in
15:44 97 °F 66.4 °F 29.9 in NE 9.2 mph 17.3 mph 37.2% 0 in
15:49 96.4 °F 66 °F 29.9 in NE 9.3 mph 17.5 mph 37% 0 in
15:54 96.4 °F 66 °F 29.9 in NE 10 mph 18.4 mph 37% 0 in
15:59 96.1 °F 66 °F 29.9 in ENE 10.3 mph 18.5 mph 37.6% 0 in
16:04 95.7 °F 66 °F 29.9 in NE 11.8 mph 19 mph 38.1% 0 in
16:09 95.5 °F 66.2 °F 29.9 in NE 11.9 mph 21.9 mph 38.4% 0 in
16:14 95.4 °F 66.4 °F 29.9 in NE 12.5 mph 22 mph 38.7% 0 in
16:19 95.5 °F 66 °F 29.9 in NE 12.3 mph 21 mph 38.3% 0 in
16:24 95.5 °F 66.4 °F 29.9 in NE 11.4 mph 21.9 mph 38.7% 0 in
16:29 95.2 °F 65.8 °F 29.9 in NE 11.7 mph 25.6 mph 38.3% 0 in
16:34 94.6 °F 65.5 °F 29.9 in NE 13 mph 26 mph 38.6% 0 in
16:39 94.6 °F 65.7 °F 29.9 in NE 12.8 mph 20.4 mph 38.9% 0 in
16:44 94.6 °F 65.5 °F 29.9 in NE 11.8 mph 21 mph 38.6% 0 in
16:49 94.5 °F 65.7 °F 29.9 in NE 12 mph 21 mph 39% 0 in
16:54 94.3 °F 65.3 °F 29.9 in NE 13 mph 22.5 mph 38.7% 0 in
16:59 94.3 °F 65.1 °F 29.9 in ENE 13.1 mph 23 mph 38.4% 0 in
17:04 94.1 °F 64.9 °F 29.9 in NE 13.5 mph 22.3 mph 38.5% 0 in
17:09 94.1 °F 64.8 °F 29.9 in NE 13.4 mph 22 mph 38.2% 0 in
17:14 94.1 °F 64.6 °F 29.9 in NE 13 mph 22 mph 38% 0 in
17:19 94.1 °F 64.6 °F 29.9 in NE 12.9 mph 18.4 mph 37.9% 0 in
17:24 94.3 °F 64.6 °F 29.9 in NE 12.3 mph 18.5 mph 37.8% 0 in
17:29 94.3 °F 64.8 °F 29.9 in NE 12 mph 19 mph 38% 0 in
17:34 94.1 °F 64.4 °F 29.9 in NE 10.2 mph 24.2 mph 37.8% 0 in
17:39 93.9 °F 64.6 °F 29.9 in NE 10.4 mph 24 mph 38% 0 in
17:44 94.3 °F 64.8 °F 29.9 in NE 11.8 mph 19.2 mph 38% 0 in
17:49 94.1 °F 64.6 °F 29.9 in NE 11.8 mph 20 mph 38% 0 in
17:54 93.9 °F 64.6 °F 29.9 in NE 11.8 mph 20 mph 38.1% 0 in
17:59 94.1 °F 64.9 °F 29.9 in NE 11.6 mph 19 mph 38.4% 0 in
18:04 93.9 °F 65.1 °F 29.9 in NE 10.7 mph 18 mph 38.9% 0 in
18:09 93.7 °F 64.9 °F 29.9 in NE 10.6 mph 19.6 mph 38.8% 0 in
18:14 93.6 °F 64.9 °F 29.9 in NE 10.2 mph 20 mph 39.1% 0 in
18:19 93.6 °F 64.9 °F 29.9 in NE 10.1 mph 16.1 mph 39.1% 0 in
18:24 93.6 °F 64.9 °F 29.9 in ENE 9.7 mph 17.3 mph 39% 0 in
18:29 93.6 °F 64.9 °F 29.9 in ENE 9.5 mph 17 mph 39% 0 in
18:34 93.6 °F 65.1 °F 29.9 in NE 8.7 mph 16.1 mph 39.3% 0 in
18:39 93.4 °F 65.3 °F 29.9 in NE 9 mph 16.1 mph 40% 0 in
18:44 93.4 °F 65.3 °F 29.9 in NE 10.7 mph 16.1 mph 40% 0 in
18:49 93.4 °F 65.3 °F 29.9 in NE 10.6 mph 16 mph 40% 0 in
18:54 93.6 °F 65.1 °F 29.9 in NE 9.7 mph 17.3 mph 39.3% 0 in
18:59 93.4 °F 64.8 °F 29.9 in ENE 9.7 mph 17 mph 39.1% 0 in
19:04 93.4 °F 64.9 °F 29.9 in NE 9.7 mph 16.1 mph 39.5% 0 in
19:09 93.2 °F 64.8 °F 29.9 in NE 9.7 mph 16 mph 39.1% 0 in
19:14 93.2 °F 64.8 °F 29.9 in NE 9.7 mph 17.3 mph 39.2% 0 in
19:19 93 °F 64.9 °F 29.9 in NE 9.7 mph 17 mph 39.7% 0 in
19:24 92.8 °F 65.1 °F 29.9 in NE 9.7 mph 16.1 mph 40% 0 in
19:29 92.8 °F 64.9 °F 29.9 in NE 9.8 mph 16 mph 40% 0 in
19:34 92.7 °F 65.5 °F 29.9 in NE 10 mph 16.1 mph 40.9% 0 in
19:39 92.5 °F 65.5 °F 29.9 in NE 9.9 mph 16 mph 41.2% 0 in
19:44 92.5 °F 66 °F 29.9 in NE 9.2 mph 15.2 mph 42% 0 in
19:49 92.1 °F 66 °F 29.9 in NE 9.1 mph 15 mph 42.5% 0 in
19:54 91.9 °F 66.4 °F 29.9 in NE 8.7 mph 14 mph 43.3% 0 in
19:59 91.8 °F 66.7 °F 29.9 in NE 8.7 mph 14.5 mph 44% 0 in
20:04 91.4 °F 66.6 °F 29.9 in NE 8.7 mph 17.3 mph 44.3% 0 in
20:09 90.9 °F 67.3 °F 29.9 in NE 9 mph 17 mph 46% 0 in
20:14 90.3 °F 67.6 °F 29.9 in NE 10.7 mph 17 mph 47.3% 0 in
20:19 90 °F 67.8 °F 29.9 in NE 10.7 mph 18.4 mph 48.6% 0 in
20:24 89.2 °F 68.2 °F 29.9 in NE 10.7 mph 18 mph 49.8% 0 in
20:29 89.1 °F 68 °F 29.9 in NE 10.7 mph 16.1 mph 50% 0 in
20:34 88.7 °F 67.6 °F 29.9 in NE 10.7 mph 16 mph 50% 0 in
20:39 88.3 °F 67.5 °F 29.9 in NE 10.6 mph 16.1 mph 50% 0 in
20:44 88.2 °F 66.9 °F 29.9 in NNE 10 mph 16.1 mph 49.8% 0 in
20:49 87.8 °F 66.2 °F 29.9 in NE 10 mph 16 mph 49% 0 in
20:54 87.6 °F 65.7 °F 29.9 in NE 10.2 mph 14 mph 48.3% 0 in
20:59 87.6 °F 65.3 °F 29.9 in NE 9.9 mph 14 mph 47.6% 0 in
21:04 87.6 °F 64.9 °F 29.9 in NE 8.5 mph 14 mph 47% 0 in
21:09 87.4 °F 64.8 °F 29.9 in NE 8.3 mph 12.3 mph 47% 0 in
21:14 87.4 °F 64.2 °F 29.9 in NE 7.4 mph 13 mph 46.3% 0 in
21:19 87.3 °F 64.6 °F 29.9 in NNE 7.5 mph 13 mph 47% 0 in
21:24 87.1 °F 64.4 °F 29.9 in NE 8.1 mph 12.3 mph 47% 0 in
21:29 86.9 °F 64.4 °F 29.9 in NE 8 mph 13 mph 47.4% 0 in
21:34 86.7 °F 65.1 °F 29.9 in NE 7.4 mph 12.7 mph 48.7% 0 in
21:38 86.5 °F 66.2 °F 29.9 in NE 7.4 mph 13.8 mph 51% 0 in
Murcia-Puente Tocinos, Espa?a
Compliments of Weather Underground - 3 mb

La estación de MeteoMurcia.com, publica sus datos en los siguientes proyectos:

Weather Underground PWS IMURCIAP2 Meteoclimatic www.awekas.at

Web Analytics

Clicky